createdAt,value
2018-07-26T00:00:14.266Z,53.80
2018-07-26T00:02:42.038Z,54.20
2018-07-26T00:05:10.012Z,55.40
2018-07-26T00:07:37.663Z,53.90
2018-07-26T00:10:06.667Z,52.80
2018-07-26T00:12:34.374Z,53.10
2018-07-26T00:15:02.203Z,53.90
2018-07-26T00:17:29.904Z,55.20
2018-07-26T00:19:57.741Z,56.80
2018-07-26T00:22:25.373Z,57.50
2018-07-26T00:24:53.044Z,55.60
2018-07-26T00:27:20.621Z,55.10
2018-07-26T00:29:48.656Z,56.50
2018-07-26T00:32:16.296Z,55.50
2018-07-26T00:34:43.930Z,56.10
2018-07-26T00:37:11.622Z,55.60
2018-07-26T00:39:39.278Z,54.00
2018-07-26T00:42:07.035Z,54.50
2018-07-26T00:44:34.771Z,51.80
2018-07-26T00:47:02.432Z,51.40
2018-07-26T00:49:30.160Z,50.60
2018-07-26T00:51:57.841Z,49.60
2018-07-26T00:54:25.426Z,49.50
2018-07-26T00:56:53.031Z,49.60
2018-07-26T00:59:20.631Z,48.40
2018-07-26T01:01:48.489Z,48.00
2018-07-26T01:04:16.526Z,48.20
2018-07-26T01:06:44.151Z,47.50
2018-07-26T01:09:12.961Z,47.90
2018-07-26T01:11:40.619Z,49.50
2018-07-26T01:14:08.346Z,48.40
2018-07-26T01:16:35.971Z,51.40
2018-07-26T01:19:04.778Z,53.70
2018-07-26T01:21:32.456Z,53.70
2018-07-26T01:24:00.163Z,53.60
2018-07-26T01:26:28.248Z,51.40
2018-07-26T01:28:56.000Z,50.90
2018-07-26T01:31:24.135Z,52.60
2018-07-26T01:33:52.219Z,53.50
2018-07-26T01:36:19.902Z,54.40
2018-07-26T01:38:47.782Z,54.70
2018-07-26T01:41:15.392Z,56.30
2018-07-26T01:43:54.500Z,56.70
2018-07-26T01:46:23.292Z,57.80
2018-07-26T01:48:51.040Z,57.00
2018-07-26T01:51:18.724Z,59.00
2018-07-26T01:53:46.513Z,59.20
2018-07-26T01:56:16.222Z,54.30
2018-07-26T01:58:43.958Z,53.00
2018-07-26T02:01:12.306Z,53.80
2018-07-26T02:03:40.209Z,54.40
2018-07-26T02:06:08.124Z,53.90
2018-07-26T02:08:36.035Z,53.20
2018-07-26T02:11:04.110Z,53.00
2018-07-26T02:13:32.867Z,54.20
2018-07-26T02:16:00.634Z,55.90
2018-07-26T02:18:28.304Z,56.50
2018-07-26T02:20:56.044Z,55.80
2018-07-26T02:23:24.222Z,56.00
2018-07-26T02:25:52.039Z,55.20
2018-07-26T02:28:19.739Z,55.20
2018-07-26T02:30:47.445Z,55.70
2018-07-26T02:33:15.183Z,56.10
2018-07-26T02:35:43.052Z,55.00
2018-07-26T02:38:11.022Z,55.60
2018-07-26T02:40:38.771Z,54.30
2018-07-26T02:43:06.941Z,55.10
2018-07-26T02:45:34.679Z,55.00
2018-07-26T02:48:02.337Z,55.10
2018-07-26T02:50:30.028Z,54.40
2018-07-26T02:52:57.691Z,54.10
2018-07-26T02:55:25.335Z,55.00
2018-07-26T02:57:53.249Z,56.00
2018-07-26T03:00:20.886Z,57.50
2018-07-26T03:02:48.520Z,57.90
2018-07-26T03:05:16.243Z,58.80
2018-07-26T03:07:44.083Z,58.00
2018-07-26T03:10:11.848Z,57.30
2018-07-26T03:12:39.609Z,57.50
2018-07-26T03:15:07.279Z,56.20
2018-07-26T03:17:35.233Z,57.20
2018-07-26T03:20:03.055Z,56.90
2018-07-26T03:22:31.144Z,57.00
2018-07-26T03:24:58.856Z,57.00
2018-07-26T03:27:26.591Z,58.10
2018-07-26T03:29:54.255Z,57.70
2018-07-26T03:32:21.996Z,58.10
2018-07-26T03:34:49.764Z,58.30
2018-07-26T03:37:17.452Z,57.00
2018-07-26T03:39:46.420Z,56.00
2018-07-26T03:42:14.119Z,56.20
2018-07-26T03:44:41.882Z,56.80
2018-07-26T03:47:09.605Z,57.90
2018-07-26T03:49:37.207Z,58.20
2018-07-26T03:52:05.145Z,56.90
2018-07-26T03:54:33.246Z,57.40
2018-07-26T03:57:01.276Z,57.20
2018-07-26T03:59:29.100Z,57.20
2018-07-26T04:01:56.789Z,56.20
2018-07-26T04:04:24.502Z,56.50
2018-07-26T04:06:52.083Z,56.40
2018-07-26T04:09:19.791Z,56.50
2018-07-26T04:11:47.536Z,56.30
2018-07-26T04:14:15.243Z,57.40
2018-07-26T04:16:43.125Z,57.50
2018-07-26T04:19:11.989Z,58.30
2018-07-26T04:21:40.354Z,54.70
2018-07-26T04:24:08.125Z,54.60
2018-07-26T04:26:36.322Z,54.90
2018-07-26T04:29:04.351Z,54.20
2018-07-26T04:31:32.368Z,55.40
2018-07-26T04:34:00.020Z,56.10
2018-07-26T04:36:27.791Z,56.90
2018-07-26T04:38:55.342Z,56.90
2018-07-26T04:41:23.064Z,55.40
2018-07-26T04:43:50.775Z,55.40
2018-07-26T04:46:18.659Z,54.00
2018-07-26T04:48:46.384Z,55.80
2018-07-26T04:51:14.234Z,54.90
2018-07-26T04:53:41.918Z,55.40
2018-07-26T04:56:09.653Z,55.70
2018-07-26T04:58:37.242Z,55.30
2018-07-26T05:01:04.950Z,55.20
2018-07-26T05:03:32.643Z,53.60
2018-07-26T05:06:00.284Z,55.20
2018-07-26T05:08:27.956Z,55.60
2018-07-26T05:10:56.211Z,55.50
2018-07-26T05:13:23.951Z,54.90
2018-07-26T05:15:54.072Z,55.70
2018-07-26T05:18:22.477Z,56.00
2018-07-26T05:20:50.255Z,54.00
2018-07-26T05:23:18.189Z,54.10
2018-07-26T05:25:46.908Z,54.40
2018-07-26T05:28:14.767Z,53.90
2018-07-26T05:30:42.455Z,53.20
2018-07-26T05:33:10.150Z,52.30
2018-07-26T05:35:38.448Z,50.80
2018-07-26T05:38:06.168Z,50.40
2018-07-26T05:40:33.229Z,50.40
2018-07-26T05:43:00.961Z,49.80
2018-07-26T05:45:29.792Z,49.30
2018-07-26T05:47:57.457Z,49.30
2018-07-26T05:50:27.206Z,48.50
2018-07-26T05:52:55.376Z,48.00
2018-07-26T05:55:23.400Z,46.70
2018-07-26T05:57:51.287Z,47.50
2018-07-26T06:00:18.909Z,46.00
2018-07-26T06:02:46.541Z,45.80
2018-07-26T06:05:14.300Z,45.80
2018-07-26T06:07:42.098Z,46.00
2018-07-26T06:10:09.790Z,46.30
2018-07-26T06:12:37.607Z,46.20
2018-07-26T06:15:07.478Z,46.20
2018-07-26T06:17:35.175Z,45.90
2018-07-26T06:20:02.903Z,45.30
2018-07-26T06:22:30.875Z,42.80
2018-07-26T06:24:58.507Z,42.60
2018-07-26T06:27:26.267Z,43.20
2018-07-26T06:29:53.887Z,43.00
2018-07-26T06:32:21.615Z,43.00
2018-07-26T06:34:49.331Z,43.20
2018-07-26T06:37:17.263Z,42.10
2018-07-26T06:39:44.933Z,41.50
2018-07-26T06:42:12.637Z,40.30
2018-07-26T06:44:40.561Z,41.10
2018-07-26T06:47:08.105Z,39.70
2018-07-26T06:49:36.879Z,40.20
2018-07-26T06:52:08.388Z,39.80
2018-07-26T06:54:36.668Z,39.10
2018-07-26T06:57:04.412Z,39.20
2018-07-26T06:59:32.159Z,38.40
2018-07-26T07:01:59.980Z,38.20
2018-07-26T07:04:28.060Z,37.90
2018-07-26T07:06:56.658Z,37.50
2018-07-26T07:09:24.315Z,36.40
2018-07-26T07:11:52.200Z,36.50
2018-07-26T07:14:20.767Z,36.60
2018-07-26T07:16:48.424Z,35.60
2018-07-26T07:19:16.066Z,35.50
2018-07-26T07:21:43.766Z,36.00
2018-07-26T07:24:16.408Z,35.40
2018-07-26T07:26:44.056Z,34.50
2018-07-26T07:29:11.741Z,33.90
2018-07-26T07:31:39.420Z,34.80
2018-07-26T07:34:07.084Z,33.40
2018-07-26T07:36:34.711Z,33.90
2018-07-26T07:39:02.551Z,33.10
2018-07-26T07:41:30.192Z,32.60
2018-07-26T07:43:58.258Z,33.00
2018-07-26T07:46:27.906Z,31.60
2018-07-26T07:48:55.558Z,32.50
2018-07-26T07:51:23.203Z,31.20
2018-07-26T07:53:50.834Z,31.20
2018-07-26T07:56:18.510Z,31.20
2018-07-26T07:58:45.587Z,32.00
2018-07-26T08:01:13.352Z,30.30
2018-07-26T08:03:41.774Z,30.10
2018-07-26T08:06:09.476Z,29.30
2018-07-26T08:08:37.194Z,29.80
2018-07-26T08:11:04.887Z,29.70
2018-07-26T08:13:32.532Z,28.80
2018-07-26T08:16:00.203Z,29.70
2018-07-26T08:18:28.331Z,28.90
2018-07-26T08:20:56.127Z,28.00
2018-07-26T08:23:23.845Z,29.40
2018-07-26T08:25:51.626Z,28.10
2018-07-26T08:28:21.545Z,28.10
2018-07-26T08:33:54.347Z,28.20
2018-07-26T08:36:22.649Z,26.80
2018-07-26T08:38:50.619Z,26.50
2018-07-26T08:41:18.488Z,27.30
2018-07-26T08:43:51.786Z,26.60
2018-07-26T08:46:19.631Z,26.70
2018-07-26T08:48:49.859Z,25.80
2018-07-26T08:51:21.214Z,25.80
2018-07-26T08:53:48.980Z,25.80
2018-07-26T08:56:16.613Z,25.30
2018-07-26T08:58:44.280Z,25.00
2018-07-26T09:01:12.052Z,25.20
2018-07-26T09:03:39.666Z,23.70
2018-07-26T09:06:30.021Z,24.40
2018-07-26T09:08:58.029Z,24.30
2018-07-26T09:11:25.755Z,23.90
2018-07-26T09:13:53.669Z,24.10
2018-07-26T09:16:21.403Z,23.40
2018-07-26T09:18:49.099Z,23.30
2018-07-26T09:21:16.921Z,22.70
2018-07-26T09:23:46.904Z,22.50
2018-07-26T09:26:14.744Z,22.80
2018-07-26T09:28:42.394Z,21.20
2018-07-26T09:31:10.037Z,21.60
2018-07-26T09:33:39.356Z,20.90
2018-07-26T09:36:07.643Z,21.60
2018-07-26T09:38:36.772Z,20.80
2018-07-26T09:41:03.997Z,20.80
2018-07-26T09:43:31.648Z,20.90
2018-07-26T09:46:03.076Z,20.90
2018-07-26T09:48:30.828Z,19.40
2018-07-26T09:50:58.612Z,19.10
2018-07-26T09:53:26.240Z,18.80
2018-07-26T09:55:54.028Z,17.50
2018-07-26T09:58:21.716Z,18.60
2018-07-26T10:00:54.990Z,19.40
2018-07-26T10:03:22.652Z,19.50
2018-07-26T10:05:50.306Z,20.30
2018-07-26T10:10:57.495Z,20.00
2018-07-26T10:13:25.300Z,18.40
2018-07-26T10:15:53.031Z,18.80
2018-07-26T10:18:20.796Z,18.80
2018-07-26T10:20:49.496Z,18.90
2018-07-26T10:23:19.600Z,17.50
2018-07-26T10:25:50.998Z,18.10
2018-07-26T10:28:18.826Z,17.80
2018-07-26T10:30:46.591Z,16.50
2018-07-26T10:33:14.381Z,17.40
2018-07-26T10:35:43.609Z,17.40
2018-07-26T10:38:11.350Z,16.70
2018-07-26T10:40:39.219Z,17.40
2018-07-26T10:43:12.979Z,16.30
2018-07-26T10:45:40.900Z,15.70
2018-07-26T10:48:08.672Z,16.10
2018-07-26T10:50:36.433Z,16.80
2018-07-26T10:53:10.628Z,16.60
2018-07-26T10:55:38.551Z,16.80
2018-07-26T10:58:06.285Z,16.90
2018-07-26T11:00:35.945Z,16.30
2018-07-26T11:03:06.744Z,16.50
2018-07-26T11:05:35.048Z,16.60
2018-07-26T11:08:03.004Z,16.80
2018-07-26T11:10:53.970Z,15.90
2018-07-26T11:13:22.922Z,16.80
2018-07-26T11:15:50.617Z,15.80
2018-07-26T11:18:18.432Z,16.30
2018-07-26T11:20:46.145Z,16.10
2018-07-26T11:23:14.937Z,15.80
2018-07-26T11:25:42.816Z,15.10
2018-07-26T11:28:10.490Z,14.60
2018-07-26T11:30:38.408Z,15.20
2018-07-26T11:33:21.676Z,15.70
2018-07-26T11:35:49.621Z,15.10
2018-07-26T11:38:17.653Z,14.10
2018-07-26T11:40:45.417Z,14.40
2018-07-26T11:43:21.255Z,14.50
2018-07-26T11:45:54.904Z,14.40
2018-07-26T11:48:23.900Z,14.50
2018-07-26T11:50:51.793Z,14.10
2018-07-26T11:53:20.366Z,13.60
2018-07-26T11:55:48.110Z,13.40
2018-07-26T11:58:15.859Z,13.30
2018-07-26T12:00:45.579Z,12.80
2018-07-26T12:03:13.555Z,12.80
2018-07-26T12:05:41.303Z,13.10
2018-07-26T12:08:09.146Z,12.30
2018-07-26T12:10:37.314Z,12.40
2018-07-26T12:13:16.353Z,12.40
2018-07-26T12:15:53.860Z,12.70
2018-07-26T12:18:32.407Z,11.80
2018-07-26T12:21:01.203Z,12.40
2018-07-26T12:23:31.208Z,11.30
2018-07-26T12:25:59.068Z,11.00
2018-07-26T12:28:27.830Z,11.60
2018-07-26T12:30:55.698Z,10.50
2018-07-26T12:33:23.354Z,10.50
2018-07-26T12:35:51.122Z,10.60
2018-07-26T12:38:19.831Z,10.30
2018-07-26T12:40:47.507Z,9.50
2018-07-26T12:43:15.253Z,10.40
2018-07-26T12:45:43.126Z,10.90
2018-07-26T12:48:11.536Z,10.80
2018-07-26T12:53:30.322Z,10.10
2018-07-26T12:55:58.148Z,10.00
2018-07-26T12:58:25.921Z,9.30
2018-07-26T13:00:56.382Z,9.50
2018-07-26T13:03:25.314Z,7.40
2018-07-26T13:05:54.805Z,8.00
2018-07-26T13:08:22.519Z,7.60
2018-07-26T13:10:53.403Z,7.90
2018-07-26T13:13:21.396Z,6.60
2018-07-26T13:15:49.428Z,7.70
2018-07-26T13:18:18.160Z,7.90
2018-07-26T13:20:52.541Z,5.90
2018-07-26T13:23:21.565Z,6.70
2018-07-26T13:25:50.135Z,5.70
2018-07-26T13:28:19.633Z,5.90
2018-07-26T13:30:47.778Z,5.30
2018-07-26T13:33:15.932Z,6.60
2018-07-26T13:35:44.108Z,4.50
2018-07-26T13:38:12.047Z,5.10
2018-07-26T13:40:40.192Z,5.70
2018-07-26T13:43:08.200Z,4.70
2018-07-26T13:45:36.134Z,5.50
2018-07-26T13:48:04.218Z,5.00
2018-07-26T13:50:33.404Z,4.80
2018-07-26T13:53:01.600Z,5.20
2018-07-26T13:55:29.498Z,5.10
2018-07-26T13:58:06.410Z,6.30
2018-07-26T14:00:34.573Z,7.30
2018-07-26T14:03:02.534Z,6.40
2018-07-26T14:05:31.107Z,6.90
2018-07-26T14:08:00.881Z,6.80
2018-07-26T14:10:34.097Z,7.80
2018-07-26T14:13:02.005Z,8.70
2018-07-26T14:15:31.750Z,8.40
2018-07-26T14:17:59.592Z,8.40
2018-07-26T14:20:27.827Z,8.20
2018-07-26T14:22:55.749Z,9.20
2018-07-26T14:25:27.518Z,9.70
2018-07-26T14:27:55.431Z,8.80
2018-07-26T14:30:23.243Z,9.80
2018-07-26T14:32:51.267Z,9.10
2018-07-26T14:35:19.300Z,10.20
2018-07-26T14:37:47.119Z,10.60
2018-07-26T14:40:15.159Z,10.10
2018-07-26T14:42:42.932Z,10.00
2018-07-26T14:45:11.177Z,11.20
2018-07-26T14:47:39.049Z,10.60
2018-07-26T14:50:08.433Z,10.50
2018-07-26T14:52:36.266Z,11.40
2018-07-26T14:55:06.423Z,11.80
2018-07-26T14:57:34.485Z,12.60
2018-07-26T15:00:02.553Z,12.30
2018-07-26T15:02:36.089Z,12.00
2018-07-26T15:05:04.749Z,11.80
2018-07-26T15:07:32.934Z,12.50
2018-07-26T15:10:02.386Z,12.40
2018-07-26T15:12:36.739Z,12.50
2018-07-26T15:15:05.760Z,12.30
2018-07-26T15:17:34.155Z,12.60
2018-07-26T15:20:01.924Z,12.50
2018-07-26T15:22:29.736Z,12.20
2018-07-26T15:24:57.558Z,11.60
2018-07-26T15:27:25.478Z,12.10
2018-07-26T15:29:53.157Z,11.10
2018-07-26T15:32:21.453Z,11.70
2018-07-26T15:34:49.223Z,11.70
2018-07-26T15:37:17.005Z,10.70
2018-07-26T15:39:44.884Z,10.20
2018-07-26T15:42:13.211Z,10.40
2018-07-26T15:44:42.140Z,10.10
2018-07-26T15:47:23.743Z,11.40
2018-07-26T15:49:51.456Z,11.70
2018-07-26T15:52:19.243Z,12.40
2018-07-26T15:54:47.427Z,12.90
2018-07-26T15:57:15.286Z,13.80
2018-07-26T15:59:42.985Z,13.90
2018-07-26T16:02:11.862Z,13.70
2018-07-26T16:04:40.125Z,13.40
2018-07-26T16:07:08.676Z,13.60
2018-07-26T16:09:36.794Z,13.80
2018-07-26T16:12:04.611Z,13.80
2018-07-26T16:14:32.808Z,14.40
2018-07-26T16:17:03.045Z,13.70
2018-07-26T16:19:30.775Z,14.00
2018-07-26T16:21:59.789Z,13.60
2018-07-26T16:24:27.767Z,13.60
2018-07-26T16:26:55.518Z,14.20
2018-07-26T16:29:24.687Z,13.60
2018-07-26T16:31:52.474Z,13.60
2018-07-26T16:34:20.140Z,13.60
2018-07-26T16:36:51.693Z,13.60
2018-07-26T16:39:20.200Z,14.10
2018-07-26T16:41:48.278Z,13.60
2018-07-26T16:44:16.239Z,13.60
2018-07-26T16:46:44.089Z,13.60
2018-07-26T16:49:12.107Z,13.60
2018-07-26T16:51:46.037Z,13.80
2018-07-26T16:54:13.935Z,13.60
2018-07-26T16:56:42.016Z,13.60
2018-07-26T16:59:09.915Z,13.70
2018-07-26T17:01:37.979Z,14.00
2018-07-26T17:04:06.056Z,14.20
2018-07-26T17:06:33.770Z,14.60
2018-07-26T17:09:01.478Z,14.60
2018-07-26T17:11:33.734Z,14.60
2018-07-26T17:14:01.640Z,15.00
2018-07-26T17:16:29.905Z,15.20
2018-07-26T17:18:57.763Z,15.10
2018-07-26T17:21:32.167Z,15.70
2018-07-26T17:24:00.252Z,15.60
2018-07-26T17:26:28.066Z,15.20
2018-07-26T17:28:56.250Z,15.40
2018-07-26T17:31:24.389Z,16.30
2018-07-26T17:33:52.272Z,16.00
2018-07-26T17:36:20.006Z,16.10
2018-07-26T17:38:47.713Z,15.80
2018-07-26T17:41:19.444Z,15.90
2018-07-26T17:43:47.228Z,15.80
2018-07-26T17:46:15.252Z,15.60
2018-07-26T17:48:43.444Z,16.20
2018-07-26T17:51:11.779Z,16.00
2018-07-26T17:53:39.581Z,15.60
2018-07-26T17:56:12.171Z,15.20
2018-07-26T17:58:39.802Z,15.40
2018-07-26T18:01:07.487Z,15.70
2018-07-26T18:03:35.730Z,16.80
2018-07-26T18:06:03.528Z,16.30
2018-07-26T18:08:32.799Z,16.60
2018-07-26T18:11:00.535Z,16.10
2018-07-26T18:13:29.460Z,16.00
2018-07-26T18:15:57.156Z,16.30
2018-07-26T18:18:25.402Z,17.20
2018-07-26T18:20:53.168Z,16.80
2018-07-26T18:23:21.394Z,16.60
2018-07-26T18:25:49.095Z,17.10
2018-07-26T18:28:17.215Z,17.10
2018-07-26T18:30:45.048Z,17.30
2018-07-26T18:33:12.811Z,19.30
2018-07-26T18:35:40.675Z,20.00
2018-07-26T18:38:08.657Z,20.20
2018-07-26T18:40:36.414Z,19.30
2018-07-26T18:43:04.186Z,19.50
2018-07-26T18:45:31.891Z,19.90
2018-07-26T18:48:00.896Z,20.20
2018-07-26T18:50:28.669Z,20.30
2018-07-26T18:52:56.528Z,18.60
2018-07-26T18:55:23.506Z,20.00
2018-07-26T18:57:51.268Z,19.60
2018-07-26T19:00:19.322Z,19.60
2018-07-26T19:02:46.989Z,19.30
2018-07-26T19:05:15.154Z,18.40
2018-07-26T19:07:42.819Z,20.30
2018-07-26T19:10:11.430Z,20.00
2018-07-26T19:12:40.257Z,20.70
2018-07-26T19:15:10.492Z,20.90
2018-07-26T19:17:38.238Z,21.10
2018-07-26T19:20:07.452Z,20.10
2018-07-26T19:22:35.554Z,20.00
2018-07-26T19:25:20.026Z,21.50
2018-07-26T19:27:47.707Z,21.50
2018-07-26T19:30:15.507Z,21.90
2018-07-26T19:32:43.133Z,22.10
2018-07-26T19:35:11.479Z,21.90
2018-07-26T19:37:43.667Z,21.80
2018-07-26T19:40:12.050Z,22.00
2018-07-26T19:42:40.243Z,22.00
2018-07-26T19:45:08.950Z,22.40
2018-07-26T19:47:36.784Z,22.30
2018-07-26T19:50:04.537Z,22.10
2018-07-26T19:52:32.260Z,22.70
2018-07-26T19:54:59.930Z,22.40
2018-07-26T19:57:28.011Z,22.60
2018-07-26T19:59:55.878Z,22.90
2018-07-26T20:02:23.609Z,22.20
2018-07-26T20:04:51.544Z,22.70
2018-07-26T20:07:19.350Z,22.00
2018-07-26T20:09:47.114Z,23.10
2018-07-26T20:12:15.001Z,22.40
2018-07-26T20:14:42.865Z,23.40
2018-07-26T20:17:10.512Z,21.80
2018-07-26T20:19:38.573Z,23.00
2018-07-26T20:22:06.633Z,22.60
2018-07-26T20:24:35.726Z,23.80
2018-07-26T20:27:03.555Z,23.00
2018-07-26T20:29:31.479Z,22.80
2018-07-26T20:31:59.251Z,23.00
2018-07-26T20:34:27.119Z,23.00
2018-07-26T20:36:54.956Z,22.70
2018-07-26T20:39:22.916Z,23.50
2018-07-26T20:41:50.781Z,22.80
2018-07-26T20:44:18.606Z,23.40
2018-07-26T20:46:46.282Z,22.20
2018-07-26T20:49:13.951Z,22.70
2018-07-26T20:51:41.740Z,22.60
2018-07-26T20:54:10.183Z,22.40
2018-07-26T20:56:38.081Z,22.60
2018-07-26T20:59:05.860Z,22.40
2018-07-26T21:01:33.640Z,22.00
2018-07-26T21:04:01.400Z,22.00
2018-07-26T21:06:29.168Z,22.10
2018-07-26T21:08:57.045Z,22.20
2018-07-26T21:11:28.522Z,22.80
2018-07-26T21:13:56.604Z,22.50
2018-07-26T21:16:25.701Z,23.00
2018-07-26T21:18:53.772Z,23.10
2018-07-26T21:21:22.253Z,24.60
2018-07-26T21:23:50.368Z,24.00
2018-07-26T21:26:18.434Z,24.20
2018-07-26T21:28:46.328Z,25.00
2018-07-26T21:31:14.374Z,25.10
2018-07-26T21:33:43.312Z,25.60
2018-07-26T21:39:14.886Z,25.90
2018-07-26T21:41:44.920Z,25.50
2018-07-26T21:44:23.430Z,25.40
2018-07-26T21:49:54.399Z,26.10
2018-07-26T21:52:24.824Z,26.20
2018-07-26T21:54:56.458Z,26.70
2018-07-26T22:29:37.636Z,28.70
2018-07-26T22:32:05.606Z,28.50
2018-07-26T22:34:33.458Z,28.50
2018-07-26T22:37:00.426Z,28.90
2018-07-26T22:39:27.926Z,29.20
2018-07-26T22:41:54.927Z,29.50
2018-07-26T22:44:22.497Z,30.30
2018-07-26T22:46:49.826Z,29.30
2018-07-26T22:49:17.191Z,29.30
2018-07-26T22:51:44.455Z,30.20
2018-07-26T22:54:11.461Z,31.10
2018-07-26T22:56:39.571Z,29.80
2018-07-26T22:59:07.026Z,29.10
2018-07-26T23:01:34.341Z,27.60
2018-07-26T23:04:01.355Z,28.10
2018-07-26T23:06:28.635Z,27.90
2018-07-26T23:08:55.684Z,27.20
2018-07-26T23:11:22.794Z,27.20
2018-07-26T23:13:50.756Z,26.10
2018-07-26T23:16:17.736Z,26.20
2018-07-26T23:18:45.660Z,27.20
2018-07-26T23:21:13.262Z,25.60
2018-07-26T23:23:40.920Z,25.60
2018-07-26T23:26:08.515Z,25.60
2018-07-26T23:28:35.828Z,26.00
2018-07-26T23:31:03.739Z,27.60
2018-07-26T23:33:31.906Z,26.60
2018-07-26T23:35:59.578Z,25.50
2018-07-26T23:38:27.127Z,27.90
2018-07-26T23:40:54.747Z,28.80
2018-07-26T23:43:22.676Z,28.20
2018-07-26T23:45:50.278Z,29.80
2018-07-26T23:48:17.933Z,28.90
2018-07-26T23:50:46.112Z,29.40
2018-07-26T23:53:14.049Z,30.10
2018-07-26T23:55:41.890Z,30.00
2018-07-26T23:58:09.548Z,30.40
